sensor_id;sensor_type;location;lat;lon;timestamp;P1;durP1;ratioP1;P2;durP2;ratioP2
4375;SDS011;2202;50.866;12.750;2024-02-14T00:02:16;8.13;;;5.73;;
4375;SDS011;2202;50.866;12.750;2024-02-14T00:04:43;5.97;;;5.37;;
4375;SDS011;2202;50.866;12.750;2024-02-14T00:07:10;11.60;;;5.13;;
4375;SDS011;2202;50.866;12.750;2024-02-14T00:09:37;8.10;;;5.43;;
4375;SDS011;2202;50.866;12.750;2024-02-14T00:12:04;5.20;;;4.70;;
4375;SDS011;2202;50.866;12.750;2024-02-14T00:14:32;5.73;;;4.57;;
4375;SDS011;2202;50.866;12.750;2024-02-14T00:16:59;4.53;;;4.13;;
4375;SDS011;2202;50.866;12.750;2024-02-14T00:19:26;6.10;;;5.50;;
4375;SDS011;2202;50.866;12.750;2024-02-14T00:21:53;6.43;;;5.20;;
4375;SDS011;2202;50.866;12.750;2024-02-14T00:24:20;9.53;;;5.23;;
4375;SDS011;2202;50.866;12.750;2024-02-14T00:26:47;7.00;;;5.20;;
4375;SDS011;2202;50.866;12.750;2024-02-14T00:29:14;6.50;;;5.90;;
4375;SDS011;2202;50.866;12.750;2024-02-14T00:31:42;6.70;;;4.80;;
4375;SDS011;2202;50.866;12.750;2024-02-14T00:34:09;5.50;;;5.00;;
4375;SDS011;2202;50.866;12.750;2024-02-14T00:36:36;5.20;;;4.70;;
4375;SDS011;2202;50.866;12.750;2024-02-14T00:39:03;6.10;;;4.60;;
4375;SDS011;2202;50.866;12.750;2024-02-14T00:41:33;4.73;;;4.43;;
4375;SDS011;2202;50.866;12.750;2024-02-14T00:44:00;5.57;;;5.07;;
4375;SDS011;2202;50.866;12.750;2024-02-14T00:46:28;5.20;;;4.70;;
4375;SDS011;2202;50.866;12.750;2024-02-14T00:48:56;4.77;;;4.37;;
4375;SDS011;2202;50.866;12.750;2024-02-14T00:51:23;6.90;;;5.03;;
4375;SDS011;2202;50.866;12.750;2024-02-14T00:53:50;7.53;;;6.53;;
4375;SDS011;2202;50.866;12.750;2024-02-14T00:56:17;8.63;;;7.27;;
4375;SDS011;2202;50.866;12.750;2024-02-14T00:58:44;9.63;;;6.87;;
4375;SDS011;2202;50.866;12.750;2024-02-14T01:01:11;6.67;;;5.47;;
4375;SDS011;2202;50.866;12.750;2024-02-14T01:03:38;6.27;;;4.60;;
4375;SDS011;2202;50.866;12.750;2024-02-14T01:06:06;9.17;;;6.13;;
4375;SDS011;2202;50.866;12.750;2024-02-14T01:08:33;8.10;;;4.73;;
4375;SDS011;2202;50.866;12.750;2024-02-14T01:11:01;5.90;;;5.13;;
4375;SDS011;2202;50.866;12.750;2024-02-14T01:13:28;8.00;;;4.67;;
4375;SDS011;2202;50.866;12.750;2024-02-14T01:15:54;5.10;;;4.60;;
4375;SDS011;2202;50.866;12.750;2024-02-14T01:18:22;5.03;;;4.50;;
4375;SDS011;2202;50.866;12.750;2024-02-14T01:20:49;4.73;;;4.30;;
4375;SDS011;2202;50.866;12.750;2024-02-14T01:23:17;6.00;;;5.27;;
4375;SDS011;2202;50.866;12.750;2024-02-14T01:25:45;5.90;;;5.37;;
4375;SDS011;2202;50.866;12.750;2024-02-14T01:28:12;7.13;;;4.77;;
4375;SDS011;2202;50.866;12.750;2024-02-14T01:30:39;5.97;;;5.30;;
4375;SDS011;2202;50.866;12.750;2024-02-14T01:33:06;5.90;;;4.50;;
4375;SDS011;2202;50.866;12.750;2024-02-14T01:35:33;4.70;;;4.30;;
4375;SDS011;2202;50.866;12.750;2024-02-14T01:37:59;6.00;;;4.53;;
4375;SDS011;2202;50.866;12.750;2024-02-14T01:40:29;4.63;;;4.27;;
4375;SDS011;2202;50.866;12.750;2024-02-14T01:42:55;6.13;;;4.60;;
4375;SDS011;2202;50.866;12.750;2024-02-14T01:45:22;5.90;;;4.73;;
4375;SDS011;2202;50.866;12.750;2024-02-14T01:47:49;8.17;;;4.23;;
4375;SDS011;2202;50.866;12.750;2024-02-14T01:50:17;5.00;;;4.50;;
4375;SDS011;2202;50.866;12.750;2024-02-14T01:52:53;5.03;;;4.60;;
4375;SDS011;2202;50.866;12.750;2024-02-14T01:55:22;7.70;;;6.23;;
4375;SDS011;2202;50.866;12.750;2024-02-14T01:57:50;8.83;;;4.80;;
4375;SDS011;2202;50.866;12.750;2024-02-14T02:00:17;5.93;;;4.27;;
4375;SDS011;2202;50.866;12.750;2024-02-14T02:02:44;5.93;;;4.23;;
4375;SDS011;2202;50.866;12.750;2024-02-14T02:05:11;4.20;;;3.90;;
4375;SDS011;2202;50.866;12.750;2024-02-14T02:07:39;4.07;;;3.73;;
4375;SDS011;2202;50.866;12.750;2024-02-14T02:10:08;4.10;;;3.70;;
4375;SDS011;2202;50.866;12.750;2024-02-14T02:12:35;6.80;;;4.13;;
4375;SDS011;2202;50.866;12.750;2024-02-14T02:15:05;5.80;;;3.90;;
4375;SDS011;2202;50.866;12.750;2024-02-14T02:17:36;5.03;;;4.27;;
4375;SDS011;2202;50.866;12.750;2024-02-14T02:20:03;6.93;;;4.73;;
4375;SDS011;2202;50.866;12.750;2024-02-14T02:22:32;6.77;;;4.83;;
4375;SDS011;2202;50.866;12.750;2024-02-14T02:25:01;3.47;;;3.10;;
4375;SDS011;2202;50.866;12.750;2024-02-14T02:27:31;5.30;;;3.30;;
4375;SDS011;2202;50.866;12.750;2024-02-14T02:30:00;3.90;;;3.60;;
4375;SDS011;2202;50.866;12.750;2024-02-14T02:32:27;3.73;;;3.30;;
4375;SDS011;2202;50.866;12.750;2024-02-14T02:34:54;3.70;;;3.40;;
4375;SDS011;2202;50.866;12.750;2024-02-14T02:37:21;4.63;;;2.97;;
4375;SDS011;2202;50.866;12.750;2024-02-14T02:39:48;6.13;;;3.07;;
4375;SDS011;2202;50.866;12.750;2024-02-14T02:42:17;2.70;;;2.43;;
4375;SDS011;2202;50.866;12.750;2024-02-14T02:44:45;6.37;;;3.80;;
4375;SDS011;2202;50.866;12.750;2024-02-14T02:47:13;3.60;;;3.30;;
4375;SDS011;2202;50.866;12.750;2024-02-14T02:49:41;4.97;;;2.77;;
4375;SDS011;2202;50.866;12.750;2024-02-14T02:52:09;3.90;;;3.50;;
4375;SDS011;2202;50.866;12.750;2024-02-14T02:54:36;5.67;;;3.67;;
4375;SDS011;2202;50.866;12.750;2024-02-14T02:57:05;3.53;;;3.23;;
4375;SDS011;2202;50.866;12.750;2024-02-14T02:59:34;3.83;;;3.50;;
4375;SDS011;2202;50.866;12.750;2024-02-14T03:02:01;4.50;;;3.07;;
4375;SDS011;2202;50.866;12.750;2024-02-14T03:04:28;4.87;;;2.93;;
4375;SDS011;2202;50.866;12.750;2024-02-14T03:06:56;3.67;;;3.00;;
4375;SDS011;2202;50.866;12.750;2024-02-14T03:09:24;6.50;;;3.00;;
4375;SDS011;2202;50.866;12.750;2024-02-14T03:11:53;4.57;;;2.90;;
4375;SDS011;2202;50.866;12.750;2024-02-14T03:14:21;3.13;;;2.90;;
4375;SDS011;2202;50.866;12.750;2024-02-14T03:16:50;3.80;;;2.67;;
4375;SDS011;2202;50.866;12.750;2024-02-14T03:19:17;4.20;;;2.87;;
4375;SDS011;2202;50.866;12.750;2024-02-14T03:21:44;3.60;;;3.30;;
4375;SDS011;2202;50.866;12.750;2024-02-14T03:24:11;3.30;;;2.70;;
4375;SDS011;2202;50.866;12.750;2024-02-14T03:26:39;3.63;;;2.80;;
4375;SDS011;2202;50.866;12.750;2024-02-14T03:29:07;3.30;;;3.00;;
4375;SDS011;2202;50.866;12.750;2024-02-14T03:31:34;2.70;;;2.50;;
4375;SDS011;2202;50.866;12.750;2024-02-14T03:34:02;2.47;;;2.20;;
4375;SDS011;2202;50.866;12.750;2024-02-14T03:36:30;3.00;;;2.70;;
4375;SDS011;2202;50.866;12.750;2024-02-14T03:38:57;3.27;;;2.97;;
4375;SDS011;2202;50.866;12.750;2024-02-14T03:41:26;2.70;;;2.50;;
4375;SDS011;2202;50.866;12.750;2024-02-14T03:43:53;2.50;;;2.30;;
4375;SDS011;2202;50.866;12.750;2024-02-14T03:46:23;2.80;;;2.30;;
4375;SDS011;2202;50.866;12.750;2024-02-14T03:48:50;4.00;;;2.43;;
4375;SDS011;2202;50.866;12.750;2024-02-14T03:51:18;2.67;;;2.47;;
4375;SDS011;2202;50.866;12.750;2024-02-14T03:53:47;2.70;;;2.50;;
4375;SDS011;2202;50.866;12.750;2024-02-14T03:56:14;2.73;;;2.53;;
4375;SDS011;2202;50.866;12.750;2024-02-14T03:58:41;3.03;;;2.30;;
4375;SDS011;2202;50.866;12.750;2024-02-14T04:01:08;3.00;;;2.37;;
4375;SDS011;2202;50.866;12.750;2024-02-14T04:03:35;2.90;;;2.20;;
4375;SDS011;2202;50.866;12.750;2024-02-14T04:06:02;3.07;;;2.83;;
4375;SDS011;2202;50.866;12.750;2024-02-14T04:08:30;6.60;;;2.10;;
4375;SDS011;2202;50.866;12.750;2024-02-14T04:10:58;3.20;;;2.53;;
4375;SDS011;2202;50.866;12.750;2024-02-14T04:13:25;2.57;;;2.20;;
4375;SDS011;2202;50.866;12.750;2024-02-14T04:15:51;1.73;;;1.63;;
4375;SDS011;2202;50.866;12.750;2024-02-14T04:18:18;2.93;;;2.73;;
4375;SDS011;2202;50.866;12.750;2024-02-14T04:20:45;3.13;;;2.27;;
4375;SDS011;2202;50.866;12.750;2024-02-14T04:23:12;2.23;;;2.03;;
4375;SDS011;2202;50.866;12.750;2024-02-14T04:25:41;15.60;;;2.83;;
4375;SDS011;2202;50.866;12.750;2024-02-14T04:28:07;3.30;;;2.40;;
4375;SDS011;2202;50.866;12.750;2024-02-14T04:30:37;2.50;;;2.30;;
4375;SDS011;2202;50.866;12.750;2024-02-14T04:33:03;2.37;;;2.00;;
4375;SDS011;2202;50.866;12.750;2024-02-14T04:35:31;3.73;;;2.13;;
4375;SDS011;2202;50.866;12.750;2024-02-14T04:37:59;2.30;;;2.10;;
4375;SDS011;2202;50.866;12.750;2024-02-14T04:40:26;2.70;;;1.60;;
4375;SDS011;2202;50.866;12.750;2024-02-14T04:42:54;3.50;;;2.27;;
4375;SDS011;2202;50.866;12.750;2024-02-14T04:45:21;2.07;;;1.87;;
4375;SDS011;2202;50.866;12.750;2024-02-14T04:47:47;2.30;;;1.60;;
4375;SDS011;2202;50.866;12.750;2024-02-14T04:50:14;3.77;;;1.80;;
4375;SDS011;2202;50.866;12.750;2024-02-14T04:52:41;1.67;;;1.57;;
4375;SDS011;2202;50.866;12.750;2024-02-14T04:55:08;2.10;;;1.50;;
4375;SDS011;2202;50.866;12.750;2024-02-14T04:57:35;7.13;;;1.97;;
4375;SDS011;2202;50.866;12.750;2024-02-14T05:00:05;2.90;;;1.60;;
4375;SDS011;2202;50.866;12.750;2024-02-14T05:02:33;1.90;;;1.50;;
4375;SDS011;2202;50.866;12.750;2024-02-14T05:05:01;2.13;;;1.80;;
4375;SDS011;2202;50.866;12.750;2024-02-14T05:07:28;2.10;;;1.70;;
4375;SDS011;2202;50.866;12.750;2024-02-14T05:09:55;2.17;;;1.80;;
4375;SDS011;2202;50.866;12.750;2024-02-14T05:12:21;1.73;;;1.63;;
4375;SDS011;2202;50.866;12.750;2024-02-14T05:14:48;3.13;;;1.90;;
4375;SDS011;2202;50.866;12.750;2024-02-14T05:17:16;1.80;;;1.60;;
4375;SDS011;2202;50.866;12.750;2024-02-14T05:19:43;5.70;;;1.70;;
4375;SDS011;2202;50.866;12.750;2024-02-14T05:22:10;1.70;;;1.60;;
4375;SDS011;2202;50.866;12.750;2024-02-14T05:24:37;1.90;;;1.70;;
4375;SDS011;2202;50.866;12.750;2024-02-14T05:27:04;2.13;;;1.63;;
4375;SDS011;2202;50.866;12.750;2024-02-14T05:29:31;2.10;;;1.90;;
4375;SDS011;2202;50.866;12.750;2024-02-14T05:31:58;3.43;;;1.53;;
4375;SDS011;2202;50.866;12.750;2024-02-14T05:34:26;3.20;;;1.40;;
4375;SDS011;2202;50.866;12.750;2024-02-14T05:36:53;1.90;;;1.70;;
4375;SDS011;2202;50.866;12.750;2024-02-14T05:39:20;4.50;;;1.80;;
4375;SDS011;2202;50.866;12.750;2024-02-14T05:41:47;2.57;;;1.60;;
4375;SDS011;2202;50.866;12.750;2024-02-14T05:44:15;2.53;;;1.90;;
4375;SDS011;2202;50.866;12.750;2024-02-14T05:46:41;1.77;;;1.30;;
4375;SDS011;2202;50.866;12.750;2024-02-14T05:49:08;1.73;;;1.63;;
4375;SDS011;2202;50.866;12.750;2024-02-14T05:51:36;4.07;;;2.13;;
4375;SDS011;2202;50.866;12.750;2024-02-14T05:54:03;2.53;;;1.90;;
4375;SDS011;2202;50.866;12.750;2024-02-14T05:56:30;2.23;;;1.50;;
4375;SDS011;2202;50.866;12.750;2024-02-14T05:58:57;2.47;;;1.57;;
4375;SDS011;2202;50.866;12.750;2024-02-14T06:01:24;2.60;;;2.07;;
4375;SDS011;2202;50.866;12.750;2024-02-14T06:03:51;2.63;;;1.83;;
4375;SDS011;2202;50.866;12.750;2024-02-14T06:06:18;3.77;;;1.97;;
4375;SDS011;2202;50.866;12.750;2024-02-14T06:08:47;2.60;;;2.30;;
4375;SDS011;2202;50.866;12.750;2024-02-14T06:11:14;4.33;;;2.37;;
4375;SDS011;2202;50.866;12.750;2024-02-14T06:13:41;4.03;;;2.20;;
4375;SDS011;2202;50.866;12.750;2024-02-14T06:16:08;4.67;;;2.27;;
4375;SDS011;2202;50.866;12.750;2024-02-14T06:18:36;7.70;;;2.17;;
4375;SDS011;2202;50.866;12.750;2024-02-14T06:21:04;3.50;;;2.27;;
4375;SDS011;2202;50.866;12.750;2024-02-14T06:23:31;2.23;;;2.03;;
4375;SDS011;2202;50.866;12.750;2024-02-14T06:25:59;4.00;;;1.97;;
4375;SDS011;2202;50.866;12.750;2024-02-14T06:28:26;2.67;;;2.07;;
4375;SDS011;2202;50.866;12.750;2024-02-14T06:30:53;3.40;;;2.00;;
4375;SDS011;2202;50.866;12.750;2024-02-14T06:33:20;3.40;;;2.10;;
4375;SDS011;2202;50.866;12.750;2024-02-14T06:35:47;2.60;;;2.23;;
4375;SDS011;2202;50.866;12.750;2024-02-14T06:38:14;2.63;;;2.20;;
4375;SDS011;2202;50.866;12.750;2024-02-14T06:40:41;2.23;;;2.03;;
4375;SDS011;2202;50.866;12.750;2024-02-14T06:43:10;6.23;;;1.93;;
4375;SDS011;2202;50.866;12.750;2024-02-14T06:45:37;2.70;;;2.30;;
4375;SDS011;2202;50.866;12.750;2024-02-14T06:48:04;3.57;;;2.13;;
4375;SDS011;2202;50.866;12.750;2024-02-14T06:50:33;3.10;;;2.20;;
4375;SDS011;2202;50.866;12.750;2024-02-14T06:53:00;4.00;;;2.33;;
4375;SDS011;2202;50.866;12.750;2024-02-14T06:55:27;2.97;;;2.67;;
4375;SDS011;2202;50.866;12.750;2024-02-14T06:57:55;3.47;;;1.73;;
4375;SDS011;2202;50.866;12.750;2024-02-14T07:00:24;4.33;;;2.13;;
4375;SDS011;2202;50.866;12.750;2024-02-14T07:02:50;3.33;;;2.37;;
4375;SDS011;2202;50.866;12.750;2024-02-14T07:05:17;4.70;;;2.17;;
4375;SDS011;2202;50.866;12.750;2024-02-14T07:07:44;3.50;;;2.60;;
4375;SDS011;2202;50.866;12.750;2024-02-14T07:10:11;4.70;;;2.27;;
4375;SDS011;2202;50.866;12.750;2024-02-14T07:12:38;3.83;;;2.57;;
4375;SDS011;2202;50.866;12.750;2024-02-14T07:15:05;3.17;;;2.83;;
4375;SDS011;2202;50.866;12.750;2024-02-14T07:17:34;5.70;;;2.87;;
4375;SDS011;2202;50.866;12.750;2024-02-14T07:20:01;2.63;;;2.37;;
4375;SDS011;2202;50.866;12.750;2024-02-14T07:22:28;4.33;;;2.87;;
4375;SDS011;2202;50.866;12.750;2024-02-14T07:24:56;2.47;;;2.27;;
4375;SDS011;2202;50.866;12.750;2024-02-14T07:27:23;3.00;;;2.37;;
4375;SDS011;2202;50.866;12.750;2024-02-14T07:29:50;4.13;;;2.13;;
4375;SDS011;2202;50.866;12.750;2024-02-14T07:32:16;3.70;;;2.97;;
4375;SDS011;2202;50.866;12.750;2024-02-14T07:34:45;4.00;;;2.60;;
4375;SDS011;2202;50.866;12.750;2024-02-14T07:37:12;2.40;;;2.20;;
4375;SDS011;2202;50.866;12.750;2024-02-14T07:39:40;3.50;;;2.30;;
4375;SDS011;2202;50.866;12.750;2024-02-14T07:42:07;5.43;;;2.73;;
4375;SDS011;2202;50.866;12.750;2024-02-14T07:44:33;3.53;;;2.50;;
4375;SDS011;2202;50.866;12.750;2024-02-14T07:47:01;4.77;;;3.20;;
4375;SDS011;2202;50.866;12.750;2024-02-14T07:49:28;3.57;;;2.10;;
4375;SDS011;2202;50.866;12.750;2024-02-14T07:51:56;3.43;;;2.30;;
4375;SDS011;2202;50.866;12.750;2024-02-14T07:54:23;2.90;;;2.60;;
4375;SDS011;2202;50.866;12.750;2024-02-14T07:56:50;2.37;;;2.17;;
4375;SDS011;2202;50.866;12.750;2024-02-14T07:59:17;5.47;;;2.50;;
4375;SDS011;2202;50.866;12.750;2024-02-14T08:01:45;4.37;;;3.03;;
4375;SDS011;2202;50.866;12.750;2024-02-14T08:04:12;2.77;;;2.57;;
4375;SDS011;2202;50.866;12.750;2024-02-14T08:06:39;3.40;;;2.60;;
4375;SDS011;2202;50.866;12.750;2024-02-14T08:09:07;2.90;;;2.70;;
4375;SDS011;2202;50.866;12.750;2024-02-14T08:11:34;3.43;;;2.70;;
4375;SDS011;2202;50.866;12.750;2024-02-14T08:14:01;3.80;;;2.73;;
4375;SDS011;2202;50.866;12.750;2024-02-14T08:16:30;3.50;;;2.97;;
4375;SDS011;2202;50.866;12.750;2024-02-14T08:18:57;2.63;;;2.43;;
4375;SDS011;2202;50.866;12.750;2024-02-14T08:21:24;4.07;;;2.50;;
4375;SDS011;2202;50.866;12.750;2024-02-14T08:23:51;2.80;;;2.23;;
4375;SDS011;2202;50.866;12.750;2024-02-14T08:26:20;3.37;;;2.80;;
4375;SDS011;2202;50.866;12.750;2024-02-14T08:28:47;4.50;;;2.57;;
4375;SDS011;2202;50.866;12.750;2024-02-14T08:31:14;2.40;;;2.20;;
4375;SDS011;2202;50.866;12.750;2024-02-14T08:33:41;3.73;;;2.70;;
4375;SDS011;2202;50.866;12.750;2024-02-14T08:36:09;2.50;;;2.30;;
4375;SDS011;2202;50.866;12.750;2024-02-14T08:38:35;3.50;;;2.40;;
4375;SDS011;2202;50.866;12.750;2024-02-14T08:41:02;4.03;;;2.57;;
4375;SDS011;2202;50.866;12.750;2024-02-14T08:43:31;2.33;;;2.03;;
4375;SDS011;2202;50.866;12.750;2024-02-14T08:45:58;4.83;;;2.43;;
4375;SDS011;2202;50.866;12.750;2024-02-14T08:48:26;3.50;;;2.33;;
4375;SDS011;2202;50.866;12.750;2024-02-14T08:50:54;5.33;;;2.20;;
4375;SDS011;2202;50.866;12.750;2024-02-14T08:53:21;3.40;;;2.80;;
4375;SDS011;2202;50.866;12.750;2024-02-14T08:55:48;4.27;;;2.87;;
4375;SDS011;2202;50.866;12.750;2024-02-14T08:58:15;3.50;;;2.50;;
4375;SDS011;2202;50.866;12.750;2024-02-14T09:00:43;6.37;;;2.50;;
4375;SDS011;2202;50.866;12.750;2024-02-14T09:03:10;2.63;;;2.43;;
4375;SDS011;2202;50.866;12.750;2024-02-14T09:05:37;3.90;;;2.70;;
4375;SDS011;2202;50.866;12.750;2024-02-14T09:08:04;10.23;;;2.90;;
4375;SDS011;2202;50.866;12.750;2024-02-14T09:10:31;3.67;;;3.23;;
4375;SDS011;2202;50.866;12.750;2024-02-14T09:12:58;2.60;;;2.40;;
4375;SDS011;2202;50.866;12.750;2024-02-14T09:15:25;2.90;;;2.60;;
4375;SDS011;2202;50.866;12.750;2024-02-14T09:17:54;4.07;;;3.30;;
4375;SDS011;2202;50.866;12.750;2024-02-14T09:20:22;5.73;;;3.23;;
4375;SDS011;2202;50.866;12.750;2024-02-14T09:22:49;3.90;;;2.60;;
4375;SDS011;2202;50.866;12.750;2024-02-14T09:25:15;5.50;;;3.40;;
4375;SDS011;2202;50.866;12.750;2024-02-14T09:27:42;3.57;;;3.23;;
4375;SDS011;2202;50.866;12.750;2024-02-14T09:30:12;5.70;;;2.60;;
4375;SDS011;2202;50.866;12.750;2024-02-14T09:32:39;2.83;;;2.60;;
4375;SDS011;2202;50.866;12.750;2024-02-14T09:35:08;3.60;;;3.20;;
4375;SDS011;2202;50.866;12.750;2024-02-14T09:37:35;6.20;;;3.40;;
4375;SDS011;2202;50.866;12.750;2024-02-14T09:40:03;6.00;;;2.90;;
4375;SDS011;2202;50.866;12.750;2024-02-14T09:42:33;5.27;;;3.33;;
4375;SDS011;2202;50.866;12.750;2024-02-14T09:45:09;4.27;;;2.47;;
4375;SDS011;2202;50.866;12.750;2024-02-14T09:47:36;3.87;;;3.20;;
4375;SDS011;2202;50.866;12.750;2024-02-14T09:50:05;10.17;;;4.27;;
4375;SDS011;2202;50.866;12.750;2024-02-14T09:52:35;4.83;;;2.97;;
4375;SDS011;2202;50.866;12.750;2024-02-14T09:55:04;2.67;;;2.47;;
4375;SDS011;2202;50.866;12.750;2024-02-14T09:57:32;6.27;;;3.53;;
4375;SDS011;2202;50.866;12.750;2024-02-14T10:00:00;4.37;;;3.27;;
4375;SDS011;2202;50.866;12.750;2024-02-14T10:02:29;3.70;;;3.40;;
4375;SDS011;2202;50.866;12.750;2024-02-14T10:04:56;3.37;;;3.07;;
4375;SDS011;2202;50.866;12.750;2024-02-14T10:07:24;3.27;;;2.97;;
4375;SDS011;2202;50.866;12.750;2024-02-14T10:09:52;6.97;;;3.93;;
4375;SDS011;2202;50.866;12.750;2024-02-14T10:12:18;5.53;;;3.20;;
4375;SDS011;2202;50.866;12.750;2024-02-14T10:14:45;7.20;;;4.67;;
4375;SDS011;2202;50.866;12.750;2024-02-14T10:17:17;4.03;;;3.53;;
4375;SDS011;2202;50.866;12.750;2024-02-14T10:19:54;8.90;;;5.43;;
4375;SDS011;2202;50.866;12.750;2024-02-14T10:22:22;6.03;;;4.20;;
4375;SDS011;2202;50.866;12.750;2024-02-14T10:24:51;5.73;;;4.40;;
4375;SDS011;2202;50.866;12.750;2024-02-14T10:27:18;6.70;;;2.80;;
4375;SDS011;2202;50.866;12.750;2024-02-14T10:29:47;3.10;;;2.40;;
4375;SDS011;2202;50.866;12.750;2024-02-14T10:32:14;3.63;;;2.57;;
4375;SDS011;2202;50.866;12.750;2024-02-14T10:34:42;2.83;;;2.63;;
4375;SDS011;2202;50.866;12.750;2024-02-14T10:37:11;3.73;;;2.73;;
4375;SDS011;2202;50.866;12.750;2024-02-14T10:39:41;3.40;;;2.87;;
4375;SDS011;2202;50.866;12.750;2024-02-14T10:42:10;3.60;;;2.70;;
4375;SDS011;2202;50.866;12.750;2024-02-14T10:44:38;6.43;;;2.90;;
4375;SDS011;2202;50.866;12.750;2024-02-14T10:47:05;3.30;;;3.00;;
4375;SDS011;2202;50.866;12.750;2024-02-14T10:49:37;4.50;;;2.83;;
4375;SDS011;2202;50.866;12.750;2024-02-14T10:52:06;2.73;;;2.40;;
4375;SDS011;2202;50.866;12.750;2024-02-14T10:54:35;4.30;;;2.70;;
4375;SDS011;2202;50.866;12.750;2024-02-14T10:57:04;8.80;;;6.10;;
4375;SDS011;2202;50.866;12.750;2024-02-14T10:59:37;6.43;;;2.70;;
4375;SDS011;2202;50.866;12.750;2024-02-14T11:02:09;3.10;;;2.80;;
4375;SDS011;2202;50.866;12.750;2024-02-14T11:04:37;5.40;;;2.80;;
4375;SDS011;2202;50.866;12.750;2024-02-14T11:07:08;3.27;;;2.67;;
4375;SDS011;2202;50.866;12.750;2024-02-14T11:09:38;3.30;;;2.40;;
4375;SDS011;2202;50.866;12.750;2024-02-14T11:12:06;3.10;;;2.80;;
4375;SDS011;2202;50.866;12.750;2024-02-14T11:14:34;9.03;;;2.93;;
4375;SDS011;2202;50.866;12.750;2024-02-14T11:17:08;5.33;;;2.50;;
4375;SDS011;2202;50.866;12.750;2024-02-14T11:19:35;3.60;;;3.30;;
4375;SDS011;2202;50.866;12.750;2024-02-14T11:22:11;3.90;;;2.80;;
4375;SDS011;2202;50.866;12.750;2024-02-14T11:24:39;4.07;;;3.10;;
4375;SDS011;2202;50.866;12.750;2024-02-14T11:27:09;6.27;;;3.03;;
4375;SDS011;2202;50.866;12.750;2024-02-14T11:29:38;3.97;;;2.63;;
4375;SDS011;2202;50.866;12.750;2024-02-14T11:32:08;6.00;;;3.53;;
4375;SDS011;2202;50.866;12.750;2024-02-14T11:34:38;3.03;;;2.83;;
4375;SDS011;2202;50.866;12.750;2024-02-14T11:37:05;3.37;;;2.60;;
4375;SDS011;2202;50.866;12.750;2024-02-14T11:39:32;5.67;;;3.20;;
4375;SDS011;2202;50.866;12.750;2024-02-14T11:42:00;5.73;;;3.00;;
4375;SDS011;2202;50.866;12.750;2024-02-14T11:44:27;3.63;;;2.80;;
4375;SDS011;2202;50.866;12.750;2024-02-14T11:46:53;3.87;;;2.57;;
4375;SDS011;2202;50.866;12.750;2024-02-14T11:49:22;4.17;;;2.63;;
4375;SDS011;2202;50.866;12.750;2024-02-14T11:51:48;3.33;;;2.13;;
4375;SDS011;2202;50.866;12.750;2024-02-14T11:54:15;5.17;;;2.67;;
4375;SDS011;2202;50.866;12.750;2024-02-14T11:56:46;4.00;;;3.37;;
4375;SDS011;2202;50.866;12.750;2024-02-14T11:59:13;3.63;;;3.17;;
4375;SDS011;2202;50.866;12.750;2024-02-14T12:01:40;5.27;;;3.03;;
4375;SDS011;2202;50.866;12.750;2024-02-14T12:04:08;5.97;;;3.20;;
4375;SDS011;2202;50.866;12.750;2024-02-14T12:06:38;3.07;;;2.60;;
4375;SDS011;2202;50.866;12.750;2024-02-14T12:09:07;3.40;;;3.10;;
4375;SDS011;2202;50.866;12.750;2024-02-14T12:11:34;3.63;;;2.93;;
4375;SDS011;2202;50.866;12.750;2024-02-14T12:14:03;5.03;;;4.60;;
4375;SDS011;2202;50.866;12.750;2024-02-14T12:16:33;6.83;;;5.00;;
4375;SDS011;2202;50.866;12.750;2024-02-14T12:19:04;4.30;;;3.47;;
4375;SDS011;2202;50.866;12.750;2024-02-14T12:21:33;3.10;;;2.83;;
4375;SDS011;2202;50.866;12.750;2024-02-14T12:24:02;3.83;;;3.53;;
4375;SDS011;2202;50.866;12.750;2024-02-14T12:26:30;3.27;;;2.87;;
4375;SDS011;2202;50.866;12.750;2024-02-14T12:28:58;2.93;;;2.60;;
4375;SDS011;2202;50.866;12.750;2024-02-14T12:31:27;3.63;;;3.33;;
4375;SDS011;2202;50.866;12.750;2024-02-14T12:33:55;4.67;;;3.20;;
4375;SDS011;2202;50.866;12.750;2024-02-14T12:36:24;5.53;;;3.03;;
4375;SDS011;2202;50.866;12.750;2024-02-14T12:38:52;4.07;;;2.80;;
4375;SDS011;2202;50.866;12.750;2024-02-14T12:41:21;2.60;;;2.37;;
4375;SDS011;2202;50.866;12.750;2024-02-14T12:43:48;6.27;;;2.80;;
4375;SDS011;2202;50.866;12.750;2024-02-14T12:46:15;3.27;;;2.97;;
4375;SDS011;2202;50.866;12.750;2024-02-14T12:48:42;3.90;;;3.40;;
4375;SDS011;2202;50.866;12.750;2024-02-14T12:51:09;4.93;;;3.20;;
4375;SDS011;2202;50.866;12.750;2024-02-14T12:53:36;2.60;;;2.40;;
4375;SDS011;2202;50.866;12.750;2024-02-14T12:56:03;3.40;;;2.80;;
4375;SDS011;2202;50.866;12.750;2024-02-14T12:58:32;4.10;;;3.23;;
4375;SDS011;2202;50.866;12.750;2024-02-14T13:01:00;4.20;;;3.33;;
4375;SDS011;2202;50.866;12.750;2024-02-14T13:03:30;4.27;;;3.80;;
4375;SDS011;2202;50.866;12.750;2024-02-14T13:05:58;3.30;;;3.00;;
4375;SDS011;2202;50.866;12.750;2024-02-14T13:08:25;3.80;;;3.50;;
4375;SDS011;2202;50.866;12.750;2024-02-14T13:10:52;3.10;;;2.77;;
4375;SDS011;2202;50.866;12.750;2024-02-14T13:13:19;3.40;;;3.10;;
4375;SDS011;2202;50.866;12.750;2024-02-14T13:15:47;3.90;;;3.50;;
4375;SDS011;2202;50.866;12.750;2024-02-14T13:18:14;5.60;;;3.40;;
4375;SDS011;2202;50.866;12.750;2024-02-14T13:20:41;3.67;;;3.37;;
4375;SDS011;2202;50.866;12.750;2024-02-14T13:23:09;4.80;;;4.40;;
4375;SDS011;2202;50.866;12.750;2024-02-14T13:25:36;3.77;;;3.47;;
4375;SDS011;2202;50.866;12.750;2024-02-14T13:28:03;3.77;;;3.33;;
4375;SDS011;2202;50.866;12.750;2024-02-14T13:30:30;4.57;;;4.07;;
4375;SDS011;2202;50.866;12.750;2024-02-14T13:32:59;4.13;;;3.80;;
4375;SDS011;2202;50.866;12.750;2024-02-14T13:35:27;4.73;;;2.90;;
4375;SDS011;2202;50.866;12.750;2024-02-14T13:37:56;4.00;;;3.70;;
4375;SDS011;2202;50.866;12.750;2024-02-14T13:40:23;4.63;;;3.50;;
4375;SDS011;2202;50.866;12.750;2024-02-14T13:42:50;3.90;;;3.53;;
4375;SDS011;2202;50.866;12.750;2024-02-14T13:45:17;5.37;;;4.17;;
4375;SDS011;2202;50.866;12.750;2024-02-14T13:47:44;3.83;;;3.53;;
4375;SDS011;2202;50.866;12.750;2024-02-14T13:50:12;4.30;;;3.90;;
4375;SDS011;2202;50.866;12.750;2024-02-14T13:52:39;6.17;;;4.30;;
4375;SDS011;2202;50.866;12.750;2024-02-14T13:55:06;3.90;;;3.60;;
4375;SDS011;2202;50.866;12.750;2024-02-14T13:57:35;3.97;;;3.63;;
4375;SDS011;2202;50.866;12.750;2024-02-14T14:00:03;11.50;;;7.87;;
4375;SDS011;2202;50.866;12.750;2024-02-14T14:02:31;5.40;;;3.93;;
4375;SDS011;2202;50.866;12.750;2024-02-14T14:04:57;4.93;;;4.17;;
4375;SDS011;2202;50.866;12.750;2024-02-14T14:07:26;4.97;;;4.47;;
4375;SDS011;2202;50.866;12.750;2024-02-14T14:09:52;7.40;;;4.87;;
4375;SDS011;2202;50.866;12.750;2024-02-14T14:12:19;4.67;;;4.30;;
4375;SDS011;2202;50.866;12.750;2024-02-14T14:14:46;5.50;;;5.00;;
4375;SDS011;2202;50.866;12.750;2024-02-14T14:17:13;4.93;;;4.53;;
4375;SDS011;2202;50.866;12.750;2024-02-14T14:19:40;4.90;;;4.40;;
4375;SDS011;2202;50.866;12.750;2024-02-14T14:22:07;4.63;;;4.33;;
4375;SDS011;2202;50.866;12.750;2024-02-14T14:24:35;4.63;;;3.97;;
4375;SDS011;2202;50.866;12.750;2024-02-14T14:27:02;4.70;;;4.30;;
4375;SDS011;2202;50.866;12.750;2024-02-14T14:29:33;5.53;;;4.83;;
4375;SDS011;2202;50.866;12.750;2024-02-14T14:32:00;6.80;;;4.73;;
4375;SDS011;2202;50.866;12.750;2024-02-14T14:34:27;5.73;;;5.23;;
4375;SDS011;2202;50.866;12.750;2024-02-14T14:36:55;5.07;;;4.57;;
4375;SDS011;2202;50.866;12.750;2024-02-14T14:39:22;5.80;;;4.70;;
4375;SDS011;2202;50.866;12.750;2024-02-14T14:41:51;5.10;;;4.60;;
4375;SDS011;2202;50.866;12.750;2024-02-14T14:44:18;5.43;;;4.90;;
4375;SDS011;2202;50.866;12.750;2024-02-14T14:46:45;4.13;;;3.73;;
4375;SDS011;2202;50.866;12.750;2024-02-14T14:51:47;6.17;;;4.50;;
4375;SDS011;2202;50.866;12.750;2024-02-14T14:54:14;4.30;;;3.90;;
4375;SDS011;2202;50.866;12.750;2024-02-14T14:56:41;5.20;;;4.43;;
4375;SDS011;2202;50.866;12.750;2024-02-14T14:59:09;6.27;;;4.50;;
4375;SDS011;2202;50.866;12.750;2024-02-14T15:01:36;4.90;;;4.50;;
4375;SDS011;2202;50.866;12.750;2024-02-14T15:04:03;5.13;;;4.73;;
4375;SDS011;2202;50.866;12.750;2024-02-14T15:06:31;6.53;;;5.00;;